createdAt,value
2023-03-31T00:00:46.201Z,11.00
2023-03-31T00:03:13.804Z,11.10
2023-03-31T00:05:41.299Z,11.10
2023-03-31T00:08:08.840Z,11.10
2023-03-31T00:10:36.366Z,11.20
2023-03-31T00:13:03.966Z,11.20
2023-03-31T00:15:31.482Z,11.20
2023-03-31T00:17:59.090Z,11.20
2023-03-31T00:20:26.559Z,11.20
2023-03-31T00:22:54.103Z,11.20
2023-03-31T00:25:21.662Z,11.20
2023-03-31T00:27:49.220Z,11.20
2023-03-31T00:30:16.785Z,11.20
2023-03-31T00:32:44.284Z,11.30
2023-03-31T00:35:11.834Z,11.30
2023-03-31T00:37:39.392Z,11.30
2023-03-31T00:40:06.922Z,11.30
2023-03-31T00:42:34.535Z,11.30
2023-03-31T00:45:07.821Z,11.30
2023-03-31T00:47:35.387Z,11.30
2023-03-31T00:50:02.934Z,11.30
2023-03-31T00:52:33.090Z,11.30
2023-03-31T00:55:00.616Z,11.30
2023-03-31T00:57:28.188Z,11.50
2023-03-31T00:59:58.426Z,11.50
2023-03-31T01:02:26.021Z,11.40
2023-03-31T01:04:53.798Z,11.60
2023-03-31T01:07:21.314Z,11.60
2023-03-31T01:09:48.874Z,11.60
2023-03-31T01:12:16.498Z,11.50
2023-03-31T01:14:44.025Z,11.50
2023-03-31T01:17:11.632Z,11.40
2023-03-31T01:20:12.111Z,11.40
2023-03-31T01:22:54.455Z,11.40
2023-03-31T01:25:27.660Z,11.30
2023-03-31T01:27:55.196Z,11.30
2023-03-31T01:30:40.830Z,11.30
2023-03-31T01:33:23.169Z,11.20
2023-03-31T01:35:56.434Z,11.50
2023-03-31T01:39:00.315Z,11.50
2023-03-31T01:41:51.783Z,11.60
2023-03-31T01:44:31.331Z,11.60
2023-03-31T01:47:01.792Z,11.50
2023-03-31T01:49:35.429Z,11.40
2023-03-31T01:52:15.007Z,11.40
2023-03-31T01:54:48.383Z,11.30
2023-03-31T01:57:15.968Z,11.20
2023-03-31T01:59:57.953Z,11.20
2023-03-31T02:02:28.554Z,11.10
2023-03-31T02:04:58.724Z,11.10
2023-03-31T02:07:34.993Z,11.10
2023-03-31T02:10:02.557Z,11.00
2023-03-31T02:12:30.083Z,11.00
2023-03-31T02:14:57.704Z,11.20
2023-03-31T02:17:25.297Z,11.40
2023-03-31T02:19:52.773Z,11.30
2023-03-31T02:22:20.338Z,11.20
2023-03-31T02:24:47.853Z,11.20
2023-03-31T02:27:23.804Z,11.10
2023-03-31T02:29:51.350Z,11.10
2023-03-31T02:32:36.519Z,11.00
2023-03-31T02:35:04.063Z,11.00
2023-03-31T02:37:31.606Z,10.90
2023-03-31T02:39:59.145Z,10.90
2023-03-31T02:42:26.689Z,10.80
2023-03-31T02:44:54.233Z,10.80
2023-03-31T02:47:21.792Z,10.70
2023-03-31T02:49:49.313Z,10.70
2023-03-31T02:52:28.850Z,10.90
2023-03-31T02:55:20.052Z,10.90
2023-03-31T02:57:59.070Z,10.90
2023-03-31T03:00:29.580Z,11.10
2023-03-31T03:03:00.068Z,11.30
2023-03-31T03:05:51.347Z,11.30
2023-03-31T03:08:18.879Z,11.20
2023-03-31T03:10:55.183Z,11.10
2023-03-31T03:13:28.558Z,11.00
2023-03-31T03:16:05.290Z,11.00
2023-03-31T03:18:32.656Z,10.90
2023-03-31T03:21:00.179Z,11.10
2023-03-31T03:23:27.733Z,11.30
2023-03-31T03:25:55.273Z,11.20
2023-03-31T03:28:22.806Z,11.10
2023-03-31T03:30:50.385Z,11.00
2023-03-31T03:33:17.964Z,11.00
2023-03-31T03:35:45.455Z,10.90
2023-03-31T03:38:13.007Z,10.80
2023-03-31T03:40:40.581Z,10.80
2023-03-31T03:43:08.116Z,10.70
2023-03-31T03:45:35.659Z,10.70
2023-03-31T03:48:03.302Z,10.90
2023-03-31T03:50:30.786Z,10.90
2023-03-31T03:52:58.303Z,10.80
2023-03-31T03:55:25.880Z,10.70
2023-03-31T03:57:53.406Z,10.70
2023-03-31T04:00:20.931Z,10.60
2023-03-31T04:02:48.507Z,10.60
2023-03-31T04:05:16.120Z,10.60
2023-03-31T04:07:43.565Z,10.50
2023-03-31T04:10:11.129Z,10.50
2023-03-31T04:12:38.665Z,10.70
2023-03-31T04:15:06.258Z,10.70
2023-03-31T04:17:33.898Z,10.60
2023-03-31T04:20:01.379Z,10.60
2023-03-31T04:22:28.879Z,10.50
2023-03-31T04:24:56.458Z,10.70
2023-03-31T04:27:23.984Z,10.70
2023-03-31T04:29:51.514Z,10.60
2023-03-31T04:32:19.101Z,10.60
2023-03-31T04:34:46.626Z,10.50
2023-03-31T04:37:14.166Z,10.50
2023-03-31T04:39:41.739Z,10.40
2023-03-31T04:42:09.276Z,10.70
2023-03-31T04:44:36.804Z,10.70
2023-03-31T04:47:04.382Z,10.60
2023-03-31T04:49:31.926Z,10.60
2023-03-31T04:51:59.457Z,10.60
2023-03-31T04:54:27.065Z,10.60
2023-03-31T04:56:54.624Z,10.60
2023-03-31T04:59:22.109Z,10.60
2023-03-31T05:01:49.816Z,10.60
2023-03-31T05:04:18.474Z,10.60
2023-03-31T05:06:45.991Z,10.80
2023-03-31T05:09:13.591Z,11.00
2023-03-31T05:11:41.130Z,11.00
2023-03-31T05:14:08.639Z,10.90
2023-03-31T05:16:36.985Z,10.80
2023-03-31T05:19:04.481Z,11.00
2023-03-31T05:21:32.019Z,10.90
2023-03-31T05:23:59.829Z,10.80
2023-03-31T05:26:27.354Z,10.70
2023-03-31T05:28:54.901Z,10.90
2023-03-31T05:31:22.528Z,10.90
2023-03-31T05:33:50.033Z,10.80
2023-03-31T05:36:17.668Z,11.00
2023-03-31T05:38:45.139Z,10.90
2023-03-31T05:41:12.670Z,10.90
2023-03-31T05:43:40.260Z,10.80
2023-03-31T05:46:08.423Z,10.80
2023-03-31T05:48:35.285Z,10.90
2023-03-31T05:51:02.818Z,10.90
2023-03-31T05:53:30.391Z,10.80
2023-03-31T05:55:57.919Z,10.90
2023-03-31T05:58:25.443Z,10.90
2023-03-31T06:00:53.085Z,10.90
2023-03-31T06:03:20.582Z,10.80
2023-03-31T06:05:48.088Z,10.80
2023-03-31T06:08:15.880Z,10.80
2023-03-31T06:10:43.406Z,10.80
2023-03-31T06:13:10.929Z,10.80
2023-03-31T06:15:38.527Z,10.80
2023-03-31T06:18:06.067Z,10.80
2023-03-31T06:20:33.597Z,11.00
2023-03-31T06:23:01.889Z,11.30
2023-03-31T06:25:37.164Z,11.30
2023-03-31T06:27:56.945Z,11.20
2023-03-31T06:30:24.524Z,11.20
2023-03-31T06:32:52.107Z,11.20
2023-03-31T06:35:19.581Z,11.20
2023-03-31T06:37:47.162Z,11.20
2023-03-31T06:40:14.688Z,11.30
2023-03-31T06:42:42.220Z,11.20
2023-03-31T06:45:09.806Z,11.50
2023-03-31T06:47:39.988Z,11.50
2023-03-31T06:50:07.575Z,11.50
2023-03-31T06:52:35.146Z,11.50
2023-03-31T06:55:02.669Z,11.50
2023-03-31T06:57:30.221Z,11.50
2023-03-31T06:59:57.794Z,11.60
2023-03-31T07:02:25.370Z,11.60
2023-03-31T07:04:52.866Z,11.60
2023-03-31T07:07:20.482Z,11.60
2023-03-31T07:09:48.003Z,11.70
2023-03-31T07:12:15.548Z,11.70
2023-03-31T07:14:43.112Z,11.80
2023-03-31T07:17:10.658Z,11.80
2023-03-31T07:19:38.186Z,11.80
2023-03-31T07:22:05.799Z,11.80
2023-03-31T07:24:33.301Z,11.90
2023-03-31T07:27:00.835Z,11.90
2023-03-31T07:29:28.418Z,11.90
2023-03-31T07:31:55.985Z,11.90
2023-03-31T07:34:23.477Z,11.90
2023-03-31T07:36:51.091Z,11.90
2023-03-31T07:39:18.600Z,12.00
2023-03-31T07:41:46.151Z,12.00
2023-03-31T07:44:13.753Z,12.10
2023-03-31T07:46:41.375Z,12.10
2023-03-31T07:49:08.831Z,12.20
2023-03-31T07:51:36.406Z,12.20
2023-03-31T07:54:03.941Z,12.30
2023-03-31T07:56:31.482Z,12.20
2023-03-31T07:58:59.088Z,12.00
2023-03-31T08:01:26.628Z,12.10
2023-03-31T08:03:54.190Z,12.00
2023-03-31T08:06:21.714Z,11.90
2023-03-31T08:08:49.241Z,11.90
2023-03-31T08:11:16.778Z,11.90
2023-03-31T08:13:44.369Z,11.90
2023-03-31T08:16:11.925Z,11.90
2023-03-31T08:18:39.459Z,11.90
2023-03-31T08:21:07.198Z,11.90
2023-03-31T08:23:34.598Z,11.80
2023-03-31T08:26:19.565Z,11.80
2023-03-31T08:28:47.080Z,11.80
2023-03-31T08:31:14.643Z,11.70
2023-03-31T08:33:42.197Z,11.60
2023-03-31T08:36:09.894Z,11.60
2023-03-31T08:38:40.144Z,11.80
2023-03-31T08:41:13.176Z,11.80
2023-03-31T08:43:43.671Z,11.70
2023-03-31T08:46:11.319Z,11.70
2023-03-31T08:48:38.772Z,11.70
2023-03-31T08:51:09.012Z,11.70
2023-03-31T08:53:41.879Z,11.80
2023-03-31T08:56:09.438Z,11.80
2023-03-31T08:58:36.995Z,11.90
2023-03-31T09:01:13.015Z,12.00
2023-03-31T09:04:06.505Z,12.10
2023-03-31T09:06:43.836Z,12.20
2023-03-31T09:09:11.430Z,12.20
2023-03-31T09:11:47.698Z,12.50
2023-03-31T09:14:36.427Z,12.80
2023-03-31T09:17:07.300Z,12.80
2023-03-31T09:19:37.147Z,12.70
2023-03-31T09:22:04.729Z,12.90
2023-03-31T09:24:32.906Z,13.10
2023-03-31T09:26:59.811Z,13.10
2023-03-31T09:29:48.414Z,13.00
2023-03-31T09:32:15.950Z,12.90
2023-03-31T09:34:43.479Z,12.90
2023-03-31T09:37:13.908Z,12.80
2023-03-31T09:39:41.455Z,12.80
2023-03-31T09:42:09.013Z,12.70
2023-03-31T09:44:45.336Z,12.70
2023-03-31T09:47:18.467Z,12.80
2023-03-31T09:49:54.101Z,12.90
2023-03-31T09:52:16.018Z,13.20
2023-03-31T09:54:48.938Z,13.20
2023-03-31T09:57:16.530Z,13.20
2023-03-31T09:59:44.101Z,13.10
2023-03-31T10:02:35.497Z,13.10
2023-03-31T10:05:03.049Z,13.00
2023-03-31T10:07:30.576Z,13.10
2023-03-31T10:09:58.112Z,13.10
2023-03-31T10:12:31.163Z,13.20
2023-03-31T10:15:04.445Z,13.20
2023-03-31T10:17:40.617Z,13.30
2023-03-31T10:19:59.584Z,13.40
2023-03-31T10:22:30.001Z,13.50
2023-03-31T10:24:57.531Z,13.60
2023-03-31T10:27:25.096Z,13.60
2023-03-31T10:29:52.649Z,13.70
2023-03-31T10:32:32.127Z,13.70
2023-03-31T10:35:05.233Z,13.70
2023-03-31T10:37:32.756Z,13.70
2023-03-31T10:40:06.385Z,13.80
2023-03-31T10:42:33.933Z,13.90
2023-03-31T10:45:37.337Z,13.90
2023-03-31T10:47:56.554Z,14.00
2023-03-31T10:50:27.005Z,14.30
2023-03-31T10:52:54.598Z,14.30
2023-03-31T10:55:22.134Z,14.30
2023-03-31T10:58:04.257Z,14.40
2023-03-31T11:00:55.572Z,14.40
2023-03-31T11:03:56.411Z,14.40
2023-03-31T11:06:35.619Z,14.70
2023-03-31T11:09:24.323Z,14.80
2023-03-31T11:11:57.336Z,14.90
2023-03-31T11:14:49.058Z,14.90
2023-03-31T11:17:37.484Z,14.80
2023-03-31T11:20:19.904Z,14.80
2023-03-31T11:22:52.858Z,14.80
2023-03-31T11:25:29.192Z,14.70
2023-03-31T11:28:18.000Z,14.70
2023-03-31T11:30:47.963Z,14.60
2023-03-31T11:33:45.197Z,14.50
2023-03-31T11:36:15.792Z,14.40
2023-03-31T11:38:51.856Z,14.40
2023-03-31T11:41:28.171Z,14.30
2023-03-31T11:44:01.310Z,14.30
2023-03-31T11:46:28.900Z,14.30
2023-03-31T11:49:01.775Z,14.20
2023-03-31T11:51:56.455Z,14.10
2023-03-31T11:54:26.783Z,14.10
2023-03-31T11:56:54.330Z,14.00
2023-03-31T11:59:21.858Z,14.00
2023-03-31T12:01:51.916Z,14.00
2023-03-31T12:04:19.451Z,14.00
2023-03-31T12:06:46.988Z,14.10
2023-03-31T12:09:32.524Z,14.10
2023-03-31T12:12:05.809Z,14.40
2023-03-31T12:14:42.033Z,14.60
2023-03-31T12:17:12.420Z,14.70
2023-03-31T12:19:45.623Z,14.80
2023-03-31T12:22:37.038Z,14.90
2023-03-31T12:25:04.625Z,15.00
2023-03-31T12:27:35.091Z,15.10
2023-03-31T12:30:02.619Z,15.10
2023-03-31T12:32:39.147Z,15.20
2023-03-31T12:35:24.679Z,15.20
2023-03-31T12:38:25.283Z,15.20
2023-03-31T12:41:04.385Z,15.20
2023-03-31T12:43:52.384Z,15.20
2023-03-31T12:46:56.106Z,15.20
2023-03-31T12:49:47.620Z,15.20
2023-03-31T12:52:21.086Z,15.20
2023-03-31T12:55:09.937Z,15.10
2023-03-31T12:57:37.443Z,15.10
2023-03-31T13:00:23.204Z,15.10
2023-03-31T13:02:50.832Z,15.10
2023-03-31T13:05:40.122Z,15.10
2023-03-31T13:08:10.235Z,15.20
2023-03-31T13:10:55.759Z,15.20
2023-03-31T13:13:23.161Z,15.20
2023-03-31T13:15:50.680Z,15.20
2023-03-31T13:18:18.255Z,15.20
2023-03-31T13:20:45.811Z,15.20
2023-03-31T13:23:21.958Z,15.20
2023-03-31T13:25:52.569Z,15.20
2023-03-31T13:28:22.848Z,15.20
2023-03-31T13:30:58.741Z,15.20
2023-03-31T13:33:35.222Z,15.20
2023-03-31T13:36:02.763Z,15.20
2023-03-31T13:38:41.899Z,15.20
2023-03-31T13:41:39.426Z,15.40
2023-03-31T13:44:10.045Z,15.50
2023-03-31T13:46:52.254Z,15.50
2023-03-31T13:49:43.797Z,15.50
2023-03-31T13:52:11.367Z,15.50
2023-03-31T13:55:02.592Z,15.40
2023-03-31T13:57:39.271Z,15.30
2023-03-31T14:00:30.997Z,15.10
2023-03-31T14:03:02.379Z,14.90
2023-03-31T14:05:29.778Z,14.70
2023-03-31T14:07:57.313Z,14.60
2023-03-31T14:10:27.683Z,14.50
2023-03-31T14:13:12.876Z,14.50
2023-03-31T14:15:58.346Z,14.50
2023-03-31T14:18:28.600Z,14.50
2023-03-31T14:20:58.538Z,14.60
2023-03-31T14:23:34.489Z,14.60
2023-03-31T14:26:10.577Z,14.60
2023-03-31T14:28:55.958Z,14.60
2023-03-31T14:31:29.122Z,14.80
2023-03-31T14:34:24.067Z,14.70
2023-03-31T14:36:54.457Z,14.70
2023-03-31T14:39:21.971Z,14.70
2023-03-31T14:41:55.280Z,14.80
2023-03-31T14:44:22.824Z,14.80
2023-03-31T14:46:50.373Z,14.90
2023-03-31T14:49:29.696Z,15.00
2023-03-31T14:51:57.265Z,15.10
2023-03-31T14:54:24.754Z,15.20
2023-03-31T14:56:52.362Z,15.20
2023-03-31T14:59:25.533Z,15.20
2023-03-31T15:01:53.082Z,15.30
2023-03-31T15:04:25.904Z,15.50
2023-03-31T15:06:48.235Z,15.70
2023-03-31T15:09:24.243Z,15.60
2023-03-31T15:11:57.234Z,15.80
2023-03-31T15:14:24.782Z,15.70
2023-03-31T15:16:52.325Z,15.50
2023-03-31T15:19:22.554Z,15.30
2023-03-31T15:21:56.195Z,15.10
2023-03-31T15:24:23.746Z,14.90
2023-03-31T15:26:53.999Z,14.70
2023-03-31T15:29:24.063Z,14.60
2023-03-31T15:31:51.704Z,14.50
2023-03-31T15:34:22.028Z,14.40
2023-03-31T15:36:49.261Z,14.40
2023-03-31T15:39:16.792Z,14.20
2023-03-31T15:41:44.384Z,14.10
2023-03-31T15:44:29.895Z,14.00
2023-03-31T15:47:00.388Z,13.80
2023-03-31T15:49:27.922Z,13.60
2023-03-31T15:51:55.459Z,13.50
2023-03-31T15:54:37.628Z,13.60
2023-03-31T15:57:05.190Z,13.60
2023-03-31T15:59:41.763Z,13.50
2023-03-31T16:02:00.368Z,13.50
2023-03-31T16:04:30.529Z,13.50
2023-03-31T16:07:03.414Z,13.50
2023-03-31T16:09:46.081Z,13.60
2023-03-31T16:12:22.104Z,13.60
2023-03-31T16:14:52.051Z,13.60
2023-03-31T16:17:19.576Z,13.60
2023-03-31T16:19:47.129Z,13.60
2023-03-31T16:22:14.685Z,13.50
2023-03-31T16:24:42.222Z,13.60
2023-03-31T16:27:09.761Z,13.60
2023-03-31T16:29:37.365Z,13.70
2023-03-31T16:32:10.678Z,13.70
2023-03-31T16:34:52.712Z,13.80
2023-03-31T16:37:20.834Z,13.90
2023-03-31T16:39:48.269Z,13.90
2023-03-31T16:42:15.888Z,14.00
2023-03-31T16:44:43.626Z,14.00
2023-03-31T16:47:15.016Z,14.00
2023-03-31T16:49:38.545Z,14.00
2023-03-31T16:52:06.073Z,14.00
2023-03-31T16:54:33.604Z,13.90
2023-03-31T16:57:01.226Z,14.00
2023-03-31T16:59:28.706Z,14.00
2023-03-31T17:01:56.246Z,13.80
2023-03-31T17:04:23.824Z,13.80
2023-03-31T17:06:51.469Z,13.70
2023-03-31T17:09:18.880Z,13.90
2023-03-31T17:11:46.440Z,13.80
2023-03-31T17:14:13.969Z,13.70
2023-03-31T17:16:48.172Z,13.60
2023-03-31T17:19:09.098Z,13.50
2023-03-31T17:21:36.625Z,13.60
2023-03-31T17:24:04.153Z,13.60
2023-03-31T17:26:31.715Z,13.50
2023-03-31T17:28:59.239Z,13.60
2023-03-31T17:31:26.803Z,13.50
2023-03-31T17:33:54.333Z,13.40
2023-03-31T17:36:21.857Z,13.30
2023-03-31T17:38:49.427Z,13.20
2023-03-31T17:41:16.992Z,13.00
2023-03-31T17:43:47.462Z,13.00
2023-03-31T17:46:15.002Z,12.90
2023-03-31T17:48:42.538Z,12.90
2023-03-31T17:51:10.091Z,13.00
2023-03-31T17:53:37.634Z,13.20
2023-03-31T17:56:05.249Z,13.40
2023-03-31T17:58:32.752Z,13.50
2023-03-31T18:01:00.273Z,13.30
2023-03-31T18:03:30.578Z,13.30
2023-03-31T18:05:58.120Z,13.40
2023-03-31T18:08:25.675Z,13.30
2023-03-31T18:10:53.287Z,13.10
2023-03-31T18:13:20.808Z,12.90
2023-03-31T18:15:51.113Z,12.80
2023-03-31T18:18:18.672Z,12.60
2023-03-31T18:20:46.200Z,12.50
2023-03-31T18:23:13.727Z,12.60
2023-03-31T18:25:43.834Z,12.50
2023-03-31T18:28:11.297Z,12.40
2023-03-31T18:30:38.822Z,12.30
2023-03-31T18:33:06.468Z,12.20
2023-03-31T18:35:34.033Z,12.20
2023-03-31T18:38:01.529Z,12.30
2023-03-31T18:40:29.048Z,12.30
2023-03-31T18:42:56.669Z,12.10
2023-03-31T18:45:24.201Z,12.10
2023-03-31T18:47:51.735Z,12.20
2023-03-31T18:50:19.308Z,12.10
2023-03-31T18:52:47.667Z,12.00
2023-03-31T18:55:14.365Z,11.90
2023-03-31T18:57:41.984Z,12.00
2023-03-31T19:00:09.600Z,12.00
2023-03-31T19:02:37.190Z,11.80
2023-03-31T19:05:04.697Z,11.80
2023-03-31T19:07:32.230Z,11.70
2023-03-31T19:09:59.778Z,11.60
2023-03-31T19:12:27.333Z,11.50
2023-03-31T19:14:54.873Z,11.40
2023-03-31T19:17:22.400Z,11.30
2023-03-31T19:19:50.246Z,11.50
2023-03-31T19:22:17.787Z,11.50
2023-03-31T19:24:45.327Z,11.40
2023-03-31T19:27:12.969Z,11.40
2023-03-31T19:29:40.448Z,11.60
2023-03-31T19:32:07.986Z,11.50
2023-03-31T19:34:35.560Z,11.40
2023-03-31T19:37:03.140Z,11.30
2023-03-31T19:39:30.660Z,11.30
2023-03-31T19:41:58.235Z,11.30
2023-03-31T19:44:25.762Z,11.50
2023-03-31T19:46:53.298Z,11.40
2023-03-31T19:49:20.873Z,11.30
2023-03-31T19:51:48.411Z,11.50
2023-03-31T19:54:15.959Z,11.40
2023-03-31T19:56:43.552Z,11.30
2023-03-31T19:59:11.078Z,11.20
2023-03-31T20:01:38.706Z,11.20
2023-03-31T20:04:06.273Z,11.10
2023-03-31T20:06:33.691Z,11.20
2023-03-31T20:09:01.237Z,11.20
2023-03-31T20:11:28.934Z,11.20
2023-03-31T20:13:56.353Z,11.10
2023-03-31T20:16:23.985Z,11.00
2023-03-31T20:18:54.388Z,11.10
2023-03-31T20:21:21.943Z,11.10
2023-03-31T20:23:49.683Z,11.00
2023-03-31T20:26:17.293Z,11.20
2023-03-31T20:28:44.797Z,11.20
2023-03-31T20:31:14.755Z,11.10
2023-03-31T20:33:42.295Z,11.10
2023-03-31T20:36:09.913Z,11.00
2023-03-31T20:38:37.340Z,11.00
2023-03-31T20:41:04.904Z,10.90
2023-03-31T20:43:32.440Z,10.90
2023-03-31T20:46:05.701Z,10.80
2023-03-31T20:48:39.100Z,10.80
2023-03-31T20:51:06.624Z,10.90
2023-03-31T20:53:34.164Z,10.90
2023-03-31T20:56:01.728Z,10.90
2023-03-31T20:58:29.280Z,10.80
2023-03-31T21:00:56.861Z,10.70
2023-03-31T21:03:24.436Z,10.70
2023-03-31T21:05:51.909Z,10.90
2023-03-31T21:08:19.448Z,10.90
2023-03-31T21:10:47.047Z,10.80
2023-03-31T21:13:14.573Z,10.70
2023-03-31T21:15:42.113Z,10.70
2023-03-31T21:18:09.685Z,10.70
2023-03-31T21:20:37.241Z,10.60
2023-03-31T21:23:04.762Z,10.60
2023-03-31T21:25:32.629Z,10.60
2023-03-31T21:27:59.950Z,10.60
2023-03-31T21:30:27.472Z,10.70
2023-03-31T21:32:55.111Z,10.70
2023-03-31T21:35:22.580Z,10.70
2023-03-31T21:37:50.108Z,10.70
2023-03-31T21:40:17.683Z,10.70
2023-03-31T21:42:45.225Z,10.60
2023-03-31T21:45:12.801Z,10.60
2023-03-31T21:47:40.388Z,10.70
2023-03-31T21:50:07.920Z,10.80
2023-03-31T21:52:35.455Z,10.70
2023-03-31T21:55:03.025Z,10.70
2023-03-31T21:57:30.624Z,10.80
2023-03-31T21:59:58.107Z,10.80
2023-03-31T22:02:25.732Z,10.70
2023-03-31T22:04:53.303Z,10.60
2023-03-31T22:07:20.806Z,10.60
2023-03-31T22:09:48.389Z,10.60
2023-03-31T22:12:15.913Z,10.80
2023-03-31T22:14:43.452Z,10.80
2023-03-31T22:17:11.769Z,10.90
2023-03-31T22:19:39.301Z,10.90
2023-03-31T22:22:06.827Z,10.80
2023-03-31T22:24:34.392Z,10.70
2023-03-31T22:27:01.916Z,10.70
2023-03-31T22:29:29.478Z,10.60
2023-03-31T22:31:57.193Z,10.50
2023-03-31T22:34:24.595Z,10.70
2023-03-31T22:36:52.120Z,10.70
2023-03-31T22:39:20.428Z,10.60
2023-03-31T22:41:47.945Z,10.80
2023-03-31T22:44:15.475Z,10.80
2023-03-31T22:46:43.066Z,10.70
2023-03-31T22:49:10.558Z,10.60
2023-03-31T22:51:38.084Z,10.60
2023-03-31T22:54:05.666Z,10.50
2023-03-31T22:56:33.196Z,10.50
2023-03-31T22:59:00.729Z,10.40
2023-03-31T23:01:28.358Z,10.30
2023-03-31T23:03:55.920Z,10.30
2023-03-31T23:06:23.390Z,10.30
2023-03-31T23:08:50.949Z,10.30
2023-03-31T23:11:18.481Z,10.20
2023-03-31T23:13:46.027Z,10.20
2023-03-31T23:16:13.621Z,10.20
2023-03-31T23:18:41.143Z,10.40
2023-03-31T23:21:08.687Z,10.40
2023-03-31T23:23:36.284Z,10.60
2023-03-31T23:26:03.806Z,10.60
2023-03-31T23:28:31.333Z,10.50
2023-03-31T23:30:59.193Z,10.60
2023-03-31T23:33:26.709Z,10.60
2023-03-31T23:35:54.269Z,10.60
2023-03-31T23:38:21.833Z,10.50
2023-03-31T23:40:49.329Z,10.50
2023-03-31T23:43:16.872Z,10.40
2023-03-31T23:45:44.467Z,10.40
2023-03-31T23:48:11.981Z,10.40
2023-03-31T23:50:39.503Z,10.50
2023-03-31T23:53:07.076Z,10.60
2023-03-31T23:55:34.886Z,10.70
2023-03-31T23:58:02.146Z,10.70
